Coloma, California
Current Conditions -  °F | °C
As of 5:15 AM on Thursday 30 Oct 2014 (Local Time) from KPVF Reporting Station
Clear Clear  
Wind Chill: 61°   Ceiling: Unl
Heat Index: 61°   Visibility: 10mi
Dew Point: 32°   Wind: 6mph
Humidity: 34%   Direction: 90°E
Pressure: 30.03"   Gusts: NA
Location:  38.8°N, 120.89°W
Report Text: KPVF 301215Z AUTO 09005KT 10SM CLR 16/00 A3003 RMK AO1
Loading
Personal Weather Stations






























Interactive Weather Map
Tropical Storm Tracking
New forecast layout! Learn more

10-Day Weather Forecast

Advertisements
Track Severe Weather on mobile